sensor_id;sensor_type;location;lat;lon;timestamp;P1;durP1;ratioP1;P2;durP2;ratioP2
56037;SDS011;41907;47.848;9.000;2023-07-13T00:01:46;5.18;;;4.47;;
56037;SDS011;41907;47.848;9.000;2023-07-13T00:04:14;9.57;;;5.20;;
56037;SDS011;41907;47.848;9.000;2023-07-13T00:06:40;8.00;;;5.50;;
56037;SDS011;41907;47.848;9.000;2023-07-13T00:09:10;7.25;;;5.22;;
56037;SDS011;41907;47.848;9.000;2023-07-13T00:11:39;11.43;;;5.78;;
56037;SDS011;41907;47.848;9.000;2023-07-13T00:14:05;8.32;;;5.22;;
56037;SDS011;41907;47.848;9.000;2023-07-13T00:16:30;8.48;;;5.05;;
56037;SDS011;41907;47.848;9.000;2023-07-13T00:18:56;11.10;;;5.47;;
56037;SDS011;41907;47.848;9.000;2023-07-13T00:21:21;9.88;;;6.55;;
56037;SDS011;41907;47.848;9.000;2023-07-13T00:23:46;8.40;;;5.20;;
56037;SDS011;41907;47.848;9.000;2023-07-13T00:26:12;7.95;;;5.28;;
56037;SDS011;41907;47.848;9.000;2023-07-13T00:28:38;10.60;;;5.50;;
56037;SDS011;41907;47.848;9.000;2023-07-13T00:31:04;8.52;;;5.22;;
56037;SDS011;41907;47.848;9.000;2023-07-13T00:33:30;9.80;;;5.50;;
56037;SDS011;41907;47.848;9.000;2023-07-13T00:35:55;6.90;;;4.75;;
56037;SDS011;41907;47.848;9.000;2023-07-13T00:38:21;7.68;;;5.20;;
56037;SDS011;41907;47.848;9.000;2023-07-13T00:40:47;7.85;;;4.85;;
56037;SDS011;41907;47.848;9.000;2023-07-13T00:43:14;8.10;;;4.85;;
56037;SDS011;41907;47.848;9.000;2023-07-13T00:48:08;6.57;;;4.38;;
56037;SDS011;41907;47.848;9.000;2023-07-13T00:50:34;9.15;;;5.25;;
56037;SDS011;41907;47.848;9.000;2023-07-13T00:52:59;6.55;;;4.45;;
56037;SDS011;41907;47.848;9.000;2023-07-13T00:55:24;8.40;;;4.57;;
56037;SDS011;41907;47.848;9.000;2023-07-13T00:57:50;8.90;;;5.85;;
56037;SDS011;41907;47.848;9.000;2023-07-13T01:00:15;8.98;;;5.57;;
56037;SDS011;41907;47.848;9.000;2023-07-13T01:02:42;6.15;;;4.45;;
56037;SDS011;41907;47.848;9.000;2023-07-13T01:05:12;5.55;;;4.38;;
56037;SDS011;41907;47.848;9.000;2023-07-13T01:07:39;8.48;;;5.38;;
56037;SDS011;41907;47.848;9.000;2023-07-13T01:10:07;8.30;;;5.03;;
56037;SDS011;41907;47.848;9.000;2023-07-13T01:12:33;7.53;;;5.00;;
56037;SDS011;41907;47.848;9.000;2023-07-13T01:15:00;9.13;;;4.75;;
56037;SDS011;41907;47.848;9.000;2023-07-13T01:17:27;6.55;;;5.80;;
56037;SDS011;41907;47.848;9.000;2023-07-13T01:19:53;8.30;;;4.90;;
56037;SDS011;41907;47.848;9.000;2023-07-13T01:22:20;6.78;;;5.00;;
56037;SDS011;41907;47.848;9.000;2023-07-13T01:24:50;6.65;;;4.75;;
56037;SDS011;41907;47.848;9.000;2023-07-13T01:27:17;8.85;;;4.97;;
56037;SDS011;41907;47.848;9.000;2023-07-13T01:29:46;9.65;;;5.30;;
56037;SDS011;41907;47.848;9.000;2023-07-13T01:32:13;5.30;;;4.43;;
56037;SDS011;41907;47.848;9.000;2023-07-13T01:34:41;6.18;;;4.72;;
56037;SDS011;41907;47.848;9.000;2023-07-13T01:37:09;11.38;;;6.70;;
56037;SDS011;41907;47.848;9.000;2023-07-13T01:39:36;9.93;;;5.43;;
56037;SDS011;41907;47.848;9.000;2023-07-13T01:42:02;9.32;;;5.93;;
56037;SDS011;41907;47.848;9.000;2023-07-13T01:44:27;8.50;;;5.75;;
56037;SDS011;41907;47.848;9.000;2023-07-13T01:46:52;6.78;;;5.40;;
56037;SDS011;41907;47.848;9.000;2023-07-13T01:49:18;8.80;;;6.10;;
56037;SDS011;41907;47.848;9.000;2023-07-13T01:51:43;9.82;;;5.47;;
56037;SDS011;41907;47.848;9.000;2023-07-13T01:54:09;9.50;;;5.80;;
56037;SDS011;41907;47.848;9.000;2023-07-13T01:56:34;8.75;;;5.38;;
56037;SDS011;41907;47.848;9.000;2023-07-13T01:58:59;15.90;;;6.18;;
56037;SDS011;41907;47.848;9.000;2023-07-13T02:01:25;7.57;;;5.00;;
56037;SDS011;41907;47.848;9.000;2023-07-13T02:03:50;6.32;;;4.70;;
56037;SDS011;41907;47.848;9.000;2023-07-13T02:06:16;7.90;;;4.88;;
56037;SDS011;41907;47.848;9.000;2023-07-13T02:08:41;7.68;;;4.60;;
56037;SDS011;41907;47.848;9.000;2023-07-13T02:11:07;6.68;;;4.43;;
56037;SDS011;41907;47.848;9.000;2023-07-13T02:13:33;4.90;;;4.00;;
56037;SDS011;41907;47.848;9.000;2023-07-13T02:15:59;4.95;;;4.22;;
56037;SDS011;41907;47.848;9.000;2023-07-13T02:18:24;7.90;;;4.10;;
56037;SDS011;41907;47.848;9.000;2023-07-13T02:20:50;6.88;;;4.72;;
56037;SDS011;41907;47.848;9.000;2023-07-13T02:23:15;5.45;;;4.35;;
56037;SDS011;41907;47.848;9.000;2023-07-13T02:25:40;7.13;;;4.72;;
56037;SDS011;41907;47.848;9.000;2023-07-13T02:28:06;6.70;;;5.13;;
56037;SDS011;41907;47.848;9.000;2023-07-13T02:30:31;7.28;;;5.20;;
56037;SDS011;41907;47.848;9.000;2023-07-13T02:32:57;13.07;;;5.93;;
56037;SDS011;41907;47.848;9.000;2023-07-13T02:35:22;7.30;;;5.15;;
56037;SDS011;41907;47.848;9.000;2023-07-13T02:37:48;8.15;;;6.00;;
56037;SDS011;41907;47.848;9.000;2023-07-13T02:40:13;7.32;;;5.80;;
56037;SDS011;41907;47.848;9.000;2023-07-13T02:42:39;10.40;;;6.38;;
56037;SDS011;41907;47.848;9.000;2023-07-13T02:45:05;9.25;;;5.03;;
56037;SDS011;41907;47.848;9.000;2023-07-13T02:47:32;8.02;;;5.35;;
56037;SDS011;41907;47.848;9.000;2023-07-13T02:49:58;7.43;;;4.63;;
56037;SDS011;41907;47.848;9.000;2023-07-13T02:52:24;9.45;;;5.32;;
56037;SDS011;41907;47.848;9.000;2023-07-13T02:54:49;5.20;;;4.65;;
56037;SDS011;41907;47.848;9.000;2023-07-13T02:57:15;8.90;;;4.97;;
56037;SDS011;41907;47.848;9.000;2023-07-13T02:59:40;8.35;;;5.03;;
56037;SDS011;41907;47.848;9.000;2023-07-13T03:02:06;7.95;;;5.03;;
56037;SDS011;41907;47.848;9.000;2023-07-13T03:04:31;8.60;;;5.03;;
56037;SDS011;41907;47.848;9.000;2023-07-13T03:06:57;6.53;;;4.78;;
56037;SDS011;41907;47.848;9.000;2023-07-13T03:09:23;6.90;;;4.93;;
56037;SDS011;41907;47.848;9.000;2023-07-13T03:11:52;20.88;;;13.43;;
56037;SDS011;41907;47.848;9.000;2023-07-13T03:14:18;9.85;;;5.50;;
56037;SDS011;41907;47.848;9.000;2023-07-13T03:16:43;10.70;;;5.60;;
56037;SDS011;41907;47.848;9.000;2023-07-13T03:19:08;8.20;;;5.03;;
56037;SDS011;41907;47.848;9.000;2023-07-13T03:21:34;6.53;;;5.32;;
56037;SDS011;41907;47.848;9.000;2023-07-13T03:23:59;6.80;;;5.20;;
56037;SDS011;41907;47.848;9.000;2023-07-13T03:26:25;12.60;;;6.72;;
56037;SDS011;41907;47.848;9.000;2023-07-13T03:28:50;10.73;;;4.80;;
56037;SDS011;41907;47.848;9.000;2023-07-13T03:31:17;5.32;;;4.30;;
56037;SDS011;41907;47.848;9.000;2023-07-13T03:33:44;8.18;;;5.35;;
56037;SDS011;41907;47.848;9.000;2023-07-13T03:36:13;6.90;;;4.38;;
56037;SDS011;41907;47.848;9.000;2023-07-13T03:41:13;9.52;;;4.13;;
56037;SDS011;41907;47.848;9.000;2023-07-13T03:43:38;14.57;;;5.03;;
56037;SDS011;41907;47.848;9.000;2023-07-13T03:46:03;6.15;;;4.03;;
56037;SDS011;41907;47.848;9.000;2023-07-13T03:48:29;6.78;;;3.97;;
56037;SDS011;41907;47.848;9.000;2023-07-13T03:50:54;7.43;;;4.00;;
56037;SDS011;41907;47.848;9.000;2023-07-13T03:53:19;7.50;;;4.22;;
56037;SDS011;41907;47.848;9.000;2023-07-13T03:55:45;7.03;;;4.00;;
56037;SDS011;41907;47.848;9.000;2023-07-13T03:58:27;7.03;;;3.83;;
56037;SDS011;41907;47.848;9.000;2023-07-13T04:00:58;8.07;;;4.35;;
56037;SDS011;41907;47.848;9.000;2023-07-13T04:03:24;10.27;;;4.10;;
56037;SDS011;41907;47.848;9.000;2023-07-13T04:05:50;9.20;;;4.10;;
56037;SDS011;41907;47.848;9.000;2023-07-13T04:08:16;6.90;;;4.10;;
56037;SDS011;41907;47.848;9.000;2023-07-13T04:10:42;5.13;;;3.85;;
56037;SDS011;41907;47.848;9.000;2023-07-13T04:13:08;7.32;;;3.67;;
56037;SDS011;41907;47.848;9.000;2023-07-13T04:15:33;8.35;;;4.72;;
56037;SDS011;41907;47.848;9.000;2023-07-13T04:17:59;4.75;;;3.85;;
56037;SDS011;41907;47.848;9.000;2023-07-13T04:20:24;6.10;;;3.88;;
56037;SDS011;41907;47.848;9.000;2023-07-13T04:22:50;8.60;;;4.32;;
56037;SDS011;41907;47.848;9.000;2023-07-13T04:25:18;5.72;;;3.83;;
56037;SDS011;41907;47.848;9.000;2023-07-13T04:27:43;8.07;;;4.90;;
56037;SDS011;41907;47.848;9.000;2023-07-13T04:30:09;6.05;;;4.10;;
56037;SDS011;41907;47.848;9.000;2023-07-13T04:32:34;7.57;;;4.15;;
56037;SDS011;41907;47.848;9.000;2023-07-13T04:35:00;5.53;;;4.90;;
56037;SDS011;41907;47.848;9.000;2023-07-13T04:37:25;9.88;;;5.25;;
56037;SDS011;41907;47.848;9.000;2023-07-13T04:39:51;9.88;;;4.57;;
56037;SDS011;41907;47.848;9.000;2023-07-13T04:42:17;8.43;;;5.15;;
56037;SDS011;41907;47.848;9.000;2023-07-13T04:44:47;9.15;;;5.15;;
56037;SDS011;41907;47.848;9.000;2023-07-13T04:47:13;6.32;;;4.78;;
56037;SDS011;41907;47.848;9.000;2023-07-13T04:49:39;6.95;;;4.40;;
56037;SDS011;41907;47.848;9.000;2023-07-13T04:52:04;6.88;;;4.90;;
56037;SDS011;41907;47.848;9.000;2023-07-13T04:54:32;6.57;;;5.00;;
56037;SDS011;41907;47.848;9.000;2023-07-13T04:56:58;7.68;;;5.28;;
56037;SDS011;41907;47.848;9.000;2023-07-13T04:59:23;7.00;;;4.88;;
56037;SDS011;41907;47.848;9.000;2023-07-13T05:01:49;7.43;;;4.70;;
56037;SDS011;41907;47.848;9.000;2023-07-13T05:04:14;7.72;;;5.07;;
56037;SDS011;41907;47.848;9.000;2023-07-13T05:06:39;7.50;;;4.80;;
56037;SDS011;41907;47.848;9.000;2023-07-13T05:09:05;6.28;;;4.57;;
56037;SDS011;41907;47.848;9.000;2023-07-13T05:11:32;5.80;;;4.85;;
56037;SDS011;41907;47.848;9.000;2023-07-13T05:13:57;7.07;;;4.20;;
56037;SDS011;41907;47.848;9.000;2023-07-13T05:16:23;5.90;;;3.22;;
56037;SDS011;41907;47.848;9.000;2023-07-13T05:18:48;4.25;;;2.95;;
56037;SDS011;41907;47.848;9.000;2023-07-13T05:21:13;5.13;;;2.70;;
56037;SDS011;41907;47.848;9.000;2023-07-13T05:23:39;3.85;;;2.33;;
56037;SDS011;41907;47.848;9.000;2023-07-13T05:26:06;4.15;;;2.65;;
56037;SDS011;41907;47.848;9.000;2023-07-13T05:28:32;6.40;;;2.72;;
56037;SDS011;41907;47.848;9.000;2023-07-13T05:30:57;3.40;;;2.28;;
56037;SDS011;41907;47.848;9.000;2023-07-13T05:33:23;8.70;;;2.72;;
56037;SDS011;41907;47.848;9.000;2023-07-13T05:35:49;4.72;;;2.88;;
56037;SDS011;41907;47.848;9.000;2023-07-13T05:38:15;3.95;;;2.67;;
56037;SDS011;41907;47.848;9.000;2023-07-13T05:40:42;6.13;;;2.70;;
56037;SDS011;41907;47.848;9.000;2023-07-13T05:43:08;5.53;;;2.70;;
56037;SDS011;41907;47.848;9.000;2023-07-13T05:45:34;4.22;;;3.00;;
56037;SDS011;41907;47.848;9.000;2023-07-13T05:47:59;4.50;;;2.70;;
56037;SDS011;41907;47.848;9.000;2023-07-13T05:50:25;4.55;;;2.60;;
56037;SDS011;41907;47.848;9.000;2023-07-13T05:52:51;4.95;;;2.80;;
56037;SDS011;41907;47.848;9.000;2023-07-13T05:55:17;4.47;;;2.65;;
56037;SDS011;41907;47.848;9.000;2023-07-13T05:57:43;3.72;;;2.78;;
56037;SDS011;41907;47.848;9.000;2023-07-13T06:00:08;4.53;;;1.80;;
56037;SDS011;41907;47.848;9.000;2023-07-13T06:02:35;5.05;;;2.20;;
56037;SDS011;41907;47.848;9.000;2023-07-13T06:05:00;3.67;;;2.20;;
56037;SDS011;41907;47.848;9.000;2023-07-13T06:07:26;9.45;;;2.75;;
56037;SDS011;41907;47.848;9.000;2023-07-13T06:09:51;3.60;;;1.77;;
56037;SDS011;41907;47.848;9.000;2023-07-13T06:12:16;4.65;;;1.88;;
56037;SDS011;41907;47.848;9.000;2023-07-13T06:14:42;4.00;;;1.58;;
56037;SDS011;41907;47.848;9.000;2023-07-13T06:17:07;2.83;;;1.85;;
56037;SDS011;41907;47.848;9.000;2023-07-13T06:19:33;9.07;;;2.78;;
56037;SDS011;41907;47.848;9.000;2023-07-13T06:21:59;8.40;;;2.10;;
56037;SDS011;41907;47.848;9.000;2023-07-13T06:24:24;4.57;;;2.17;;
56037;SDS011;41907;47.848;9.000;2023-07-13T06:26:50;6.72;;;2.08;;
56037;SDS011;41907;47.848;9.000;2023-07-13T06:29:16;6.72;;;1.95;;
56037;SDS011;41907;47.848;9.000;2023-07-13T06:31:41;3.28;;;2.05;;
56037;SDS011;41907;47.848;9.000;2023-07-13T06:34:07;6.28;;;2.90;;
56037;SDS011;41907;47.848;9.000;2023-07-13T06:36:32;4.30;;;2.17;;
56037;SDS011;41907;47.848;9.000;2023-07-13T06:38:57;10.77;;;3.40;;
56037;SDS011;41907;47.848;9.000;2023-07-13T06:41:23;2.45;;;1.90;;
56037;SDS011;41907;47.848;9.000;2023-07-13T06:43:51;4.55;;;2.00;;
56037;SDS011;41907;47.848;9.000;2023-07-13T06:46:17;4.25;;;2.30;;
56037;SDS011;41907;47.848;9.000;2023-07-13T06:48:42;4.88;;;2.17;;
56037;SDS011;41907;47.848;9.000;2023-07-13T06:51:07;3.47;;;2.00;;
56037;SDS011;41907;47.848;9.000;2023-07-13T06:53:33;2.60;;;1.92;;
56037;SDS011;41907;47.848;9.000;2023-07-13T06:55:58;6.70;;;2.22;;
56037;SDS011;41907;47.848;9.000;2023-07-13T06:58:24;3.25;;;2.05;;
56037;SDS011;41907;47.848;9.000;2023-07-13T07:00:50;4.50;;;1.80;;
56037;SDS011;41907;47.848;9.000;2023-07-13T07:03:17;2.15;;;1.75;;
56037;SDS011;41907;47.848;9.000;2023-07-13T07:05:43;4.53;;;1.60;;
56037;SDS011;41907;47.848;9.000;2023-07-13T07:08:08;3.90;;;1.90;;
56037;SDS011;41907;47.848;9.000;2023-07-13T07:10:34;2.80;;;1.83;;
56037;SDS011;41907;47.848;9.000;2023-07-13T07:13:00;4.30;;;1.63;;
56037;SDS011;41907;47.848;9.000;2023-07-13T07:15:25;2.70;;;1.58;;
56037;SDS011;41907;47.848;9.000;2023-07-13T07:17:51;5.80;;;2.22;;
56037;SDS011;41907;47.848;9.000;2023-07-13T07:20:17;6.20;;;1.67;;
56037;SDS011;41907;47.848;9.000;2023-07-13T07:22:42;4.20;;;2.05;;
56037;SDS011;41907;47.848;9.000;2023-07-13T07:25:08;4.25;;;2.00;;
56037;SDS011;41907;47.848;9.000;2023-07-13T07:27:33;5.05;;;1.80;;
56037;SDS011;41907;47.848;9.000;2023-07-13T07:29:59;2.40;;;1.60;;
56037;SDS011;41907;47.848;9.000;2023-07-13T07:32:24;6.45;;;1.88;;
56037;SDS011;41907;47.848;9.000;2023-07-13T07:34:50;4.60;;;2.08;;
56037;SDS011;41907;47.848;9.000;2023-07-13T07:37:15;4.25;;;1.88;;
56037;SDS011;41907;47.848;9.000;2023-07-13T07:39:42;7.60;;;2.85;;
56037;SDS011;41907;47.848;9.000;2023-07-13T07:42:08;6.20;;;1.83;;
56037;SDS011;41907;47.848;9.000;2023-07-13T07:44:34;5.65;;;2.30;;
56037;SDS011;41907;47.848;9.000;2023-07-13T07:47:00;4.25;;;2.10;;
56037;SDS011;41907;47.848;9.000;2023-07-13T07:49:26;6.47;;;2.55;;
56037;SDS011;41907;47.848;9.000;2023-07-13T07:51:51;3.35;;;1.70;;
56037;SDS011;41907;47.848;9.000;2023-07-13T07:54:17;3.08;;;1.40;;
56037;SDS011;41907;47.848;9.000;2023-07-13T07:56:42;3.20;;;1.70;;
56037;SDS011;41907;47.848;9.000;2023-07-13T07:59:08;5.03;;;1.40;;
56037;SDS011;41907;47.848;9.000;2023-07-13T08:01:33;3.17;;;1.42;;
56037;SDS011;41907;47.848;9.000;2023-07-13T08:03:58;1.50;;;1.40;;
56037;SDS011;41907;47.848;9.000;2023-07-13T08:06:24;5.53;;;3.10;;
56037;SDS011;41907;47.848;9.000;2023-07-13T08:08:49;1.52;;;1.30;;
56037;SDS011;41907;47.848;9.000;2023-07-13T08:11:15;2.97;;;1.50;;
56037;SDS011;41907;47.848;9.000;2023-07-13T08:13:41;3.17;;;1.50;;
56037;SDS011;41907;47.848;9.000;2023-07-13T08:16:07;2.75;;;1.38;;
56037;SDS011;41907;47.848;9.000;2023-07-13T08:18:32;2.13;;;1.10;;
56037;SDS011;41907;47.848;9.000;2023-07-13T08:20:58;4.90;;;1.17;;
56037;SDS011;41907;47.848;9.000;2023-07-13T08:23:24;3.55;;;1.38;;
56037;SDS011;41907;47.848;9.000;2023-07-13T08:25:53;3.13;;;1.77;;
56037;SDS011;41907;47.848;9.000;2023-07-13T08:28:20;1.98;;;1.05;;
56037;SDS011;41907;47.848;9.000;2023-07-13T08:30:46;3.42;;;1.40;;
56037;SDS011;41907;47.848;9.000;2023-07-13T08:33:16;2.83;;;1.30;;
56037;SDS011;41907;47.848;9.000;2023-07-13T08:35:42;4.20;;;2.00;;
56037;SDS011;41907;47.848;9.000;2023-07-13T08:38:11;2.05;;;1.23;;
56037;SDS011;41907;47.848;9.000;2023-07-13T08:40:36;3.10;;;1.50;;
56037;SDS011;41907;47.848;9.000;2023-07-13T08:43:02;5.75;;;2.50;;
56037;SDS011;41907;47.848;9.000;2023-07-13T08:45:33;5.25;;;2.00;;
56037;SDS011;41907;47.848;9.000;2023-07-13T08:53:23;3.95;;;1.90;;
56037;SDS011;41907;47.848;9.000;2023-07-13T08:55:57;4.72;;;2.08;;
56037;SDS011;41907;47.848;9.000;2023-07-13T08:58:24;3.30;;;2.30;;
56037;SDS011;41907;47.848;9.000;2023-07-13T09:06:06;8.93;;;4.22;;
56037;SDS011;41907;47.848;9.000;2023-07-13T09:09:19;4.57;;;2.15;;
56037;SDS011;41907;47.848;9.000;2023-07-13T09:17:03;2.75;;;1.63;;
56037;SDS011;41907;47.848;9.000;2023-07-13T09:19:33;3.92;;;1.67;;
56037;SDS011;41907;47.848;9.000;2023-07-13T09:22:01;1.95;;;1.05;;
56037;SDS011;41907;47.848;9.000;2023-07-13T09:24:31;3.20;;;1.63;;
56037;SDS011;41907;47.848;9.000;2023-07-13T09:29:54;4.35;;;1.33;;
56037;SDS011;41907;47.848;9.000;2023-07-13T09:32:26;2.88;;;1.35;;
56037;SDS011;41907;47.848;9.000;2023-07-13T09:34:53;2.60;;;1.30;;
56037;SDS011;41907;47.848;9.000;2023-07-13T09:37:20;4.18;;;1.92;;
56037;SDS011;41907;47.848;9.000;2023-07-13T09:39:48;3.10;;;1.45;;
56037;SDS011;41907;47.848;9.000;2023-07-13T09:42:15;3.60;;;1.40;;
56037;SDS011;41907;47.848;9.000;2023-07-13T09:44:59;4.53;;;1.60;;
56037;SDS011;41907;47.848;9.000;2023-07-13T09:47:32;3.03;;;1.20;;
56037;SDS011;41907;47.848;9.000;2023-07-13T09:50:03;1.90;;;1.10;;
56037;SDS011;41907;47.848;9.000;2023-07-13T09:52:47;4.70;;;1.48;;
56037;SDS011;41907;47.848;9.000;2023-07-13T09:57:55;6.05;;;1.50;;
56037;SDS011;41907;47.848;9.000;2023-07-13T10:00:29;2.67;;;1.95;;
56037;SDS011;41907;47.848;9.000;2023-07-13T10:02:59;2.50;;;1.40;;
56037;SDS011;41907;47.848;9.000;2023-07-13T10:05:40;3.35;;;1.30;;
56037;SDS011;41907;47.848;9.000;2023-07-13T10:08:18;2.95;;;1.50;;
56037;SDS011;41907;47.848;9.000;2023-07-13T10:10:46;4.20;;;1.80;;
56037;SDS011;41907;47.848;9.000;2023-07-13T10:13:27;2.95;;;1.40;;
56037;SDS011;41907;47.848;9.000;2023-07-13T10:15:56;4.65;;;1.60;;
56037;SDS011;41907;47.848;9.000;2023-07-13T10:18:24;3.42;;;1.50;;
56037;SDS011;41907;47.848;9.000;2023-07-13T10:20:53;5.70;;;1.52;;
56037;SDS011;41907;47.848;9.000;2023-07-13T10:23:26;2.70;;;1.33;;
56037;SDS011;41907;47.848;9.000;2023-07-13T10:25:56;1.98;;;1.27;;
56037;SDS011;41907;47.848;9.000;2023-07-13T10:28:29;3.20;;;1.30;;
56037;SDS011;41907;47.848;9.000;2023-07-13T10:30:58;2.30;;;1.13;;
56037;SDS011;41907;47.848;9.000;2023-07-13T10:33:25;3.38;;;1.15;;
56037;SDS011;41907;47.848;9.000;2023-07-13T10:35:53;2.15;;;1.02;;
56037;SDS011;41907;47.848;9.000;2023-07-13T10:38:27;3.72;;;1.27;;
56037;SDS011;41907;47.848;9.000;2023-07-13T10:43:23;2.63;;;1.10;;
56037;SDS011;41907;47.848;9.000;2023-07-13T10:45:53;3.92;;;1.30;;
56037;SDS011;41907;47.848;9.000;2023-07-13T10:48:20;6.35;;;1.98;;
56037;SDS011;41907;47.848;9.000;2023-07-13T10:50:48;3.75;;;1.40;;
56037;SDS011;41907;47.848;9.000;2023-07-13T10:53:19;6.75;;;1.55;;
56037;SDS011;41907;47.848;9.000;2023-07-13T10:58:37;2.47;;;1.20;;
56037;SDS011;41907;47.848;9.000;2023-07-13T11:03:31;1.52;;;0.90;;
56037;SDS011;41907;47.848;9.000;2023-07-13T11:06:05;2.17;;;1.30;;
56037;SDS011;41907;47.848;9.000;2023-07-13T11:08:36;2.08;;;1.05;;
56037;SDS011;41907;47.848;9.000;2023-07-13T11:11:03;1.95;;;1.00;;
56037;SDS011;41907;47.848;9.000;2023-07-13T11:16:32;5.03;;;1.43;;
56037;SDS011;41907;47.848;9.000;2023-07-13T11:21:29;5.13;;;1.40;;
56037;SDS011;41907;47.848;9.000;2023-07-13T11:24:14;5.85;;;1.27;;
56037;SDS011;41907;47.848;9.000;2023-07-13T11:29:24;3.58;;;1.35;;
56037;SDS011;41907;47.848;9.000;2023-07-13T11:31:56;2.42;;;1.13;;
56037;SDS011;41907;47.848;9.000;2023-07-13T11:34:31;2.85;;;1.33;;
56037;SDS011;41907;47.848;9.000;2023-07-13T11:37:01;3.20;;;1.40;;
56037;SDS011;41907;47.848;9.000;2023-07-13T11:39:37;3.78;;;1.20;;
56037;SDS011;41907;47.848;9.000;2023-07-13T11:42:08;3.85;;;1.42;;
56037;SDS011;41907;47.848;9.000;2023-07-13T11:44:42;4.85;;;1.35;;
56037;SDS011;41907;47.848;9.000;2023-07-13T11:47:09;5.40;;;1.20;;
56037;SDS011;41907;47.848;9.000;2023-07-13T11:49:44;1.25;;;1.08;;
56037;SDS011;41907;47.848;9.000;2023-07-13T11:52:13;3.30;;;0.98;;
56037;SDS011;41907;47.848;9.000;2023-07-13T11:54:54;2.35;;;1.15;;
56037;SDS011;41907;47.848;9.000;2023-07-13T11:57:34;3.70;;;1.25;;
56037;SDS011;41907;47.848;9.000;2023-07-13T12:00:13;8.10;;;1.83;;
56037;SDS011;41907;47.848;9.000;2023-07-13T12:02:40;6.80;;;1.13;;
56037;SDS011;41907;47.848;9.000;2023-07-13T12:05:12;3.38;;;1.30;;
56037;SDS011;41907;47.848;9.000;2023-07-13T12:07:39;5.68;;;1.20;;
56037;SDS011;41907;47.848;9.000;2023-07-13T12:10:15;2.78;;;1.40;;
56037;SDS011;41907;47.848;9.000;2023-07-13T12:13:03;1.92;;;1.38;;
56037;SDS011;41907;47.848;9.000;2023-07-13T12:15:39;2.03;;;1.50;;
56037;SDS011;41907;47.848;9.000;2023-07-13T12:18:19;3.30;;;1.00;;
56037;SDS011;41907;47.848;9.000;2023-07-13T12:20:46;3.75;;;1.50;;
56037;SDS011;41907;47.848;9.000;2023-07-13T12:23:21;2.58;;;1.42;;
56037;SDS011;41907;47.848;9.000;2023-07-13T12:25:50;3.50;;;1.77;;
56037;SDS011;41907;47.848;9.000;2023-07-13T12:31:06;2.65;;;1.08;;
56037;SDS011;41907;47.848;9.000;2023-07-13T12:33:47;1.77;;;1.48;;
56037;SDS011;41907;47.848;9.000;2023-07-13T12:36:15;2.78;;;1.30;;
56037;SDS011;41907;47.848;9.000;2023-07-13T12:38:40;2.17;;;1.70;;
56037;SDS011;41907;47.848;9.000;2023-07-13T12:41:07;2.50;;;1.48;;
56037;SDS011;41907;47.848;9.000;2023-07-13T12:43:35;1.35;;;1.17;;
56037;SDS011;41907;47.848;9.000;2023-07-13T12:46:05;1.88;;;1.40;;
56037;SDS011;41907;47.848;9.000;2023-07-13T12:48:42;2.72;;;1.25;;
56037;SDS011;41907;47.848;9.000;2023-07-13T12:51:11;2.22;;;1.30;;
56037;SDS011;41907;47.848;9.000;2023-07-13T12:53:40;4.65;;;1.30;;
56037;SDS011;41907;47.848;9.000;2023-07-13T12:56:08;1.98;;;1.45;;
56037;SDS011;41907;47.848;9.000;2023-07-13T12:58:48;1.70;;;1.48;;
56037;SDS011;41907;47.848;9.000;2023-07-13T13:01:19;3.72;;;1.52;;
56037;SDS011;41907;47.848;9.000;2023-07-13T13:03:51;2.28;;;1.55;;
56037;SDS011;41907;47.848;9.000;2023-07-13T13:06:20;5.55;;;1.48;;
56037;SDS011;41907;47.848;9.000;2023-07-13T13:08:55;3.47;;;1.40;;
56037;SDS011;41907;47.848;9.000;2023-07-13T13:11:23;3.95;;;1.58;;
56037;SDS011;41907;47.848;9.000;2023-07-13T13:13:51;2.05;;;1.30;;
56037;SDS011;41907;47.848;9.000;2023-07-13T13:16:19;2.67;;;1.23;;
56037;SDS011;41907;47.848;9.000;2023-07-13T13:18:45;2.47;;;1.40;;
56037;SDS011;41907;47.848;9.000;2023-07-13T13:21:11;2.75;;;1.67;;
56037;SDS011;41907;47.848;9.000;2023-07-13T13:23:36;3.10;;;2.00;;
56037;SDS011;41907;47.848;9.000;2023-07-13T13:26:02;2.60;;;1.42;;
56037;SDS011;41907;47.848;9.000;2023-07-13T13:28:31;2.08;;;1.58;;
56037;SDS011;41907;47.848;9.000;2023-07-13T13:30:57;3.80;;;1.73;;
56037;SDS011;41907;47.848;9.000;2023-07-13T13:33:23;2.33;;;1.27;;
56037;SDS011;41907;47.848;9.000;2023-07-13T13:35:48;3.22;;;1.73;;
56037;SDS011;41907;47.848;9.000;2023-07-13T13:38:15;2.10;;;1.60;;
56037;SDS011;41907;47.848;9.000;2023-07-13T13:40:59;1.85;;;1.45;;
56037;SDS011;41907;47.848;9.000;2023-07-13T13:43:25;2.53;;;1.70;;
56037;SDS011;41907;47.848;9.000;2023-07-13T13:45:52;2.55;;;1.38;;
56037;SDS011;41907;47.848;9.000;2023-07-13T13:48:26;2.97;;;1.23;;
56037;SDS011;41907;47.848;9.000;2023-07-13T13:50:57;4.63;;;1.77;;
56037;SDS011;41907;47.848;9.000;2023-07-13T13:53:23;3.45;;;1.63;;
56037;SDS011;41907;47.848;9.000;2023-07-13T13:55:48;1.75;;;1.55;;
56037;SDS011;41907;47.848;9.000;2023-07-13T13:58:15;3.75;;;1.60;;
56037;SDS011;41907;47.848;9.000;2023-07-13T14:00:41;2.55;;;1.45;;
56037;SDS011;41907;47.848;9.000;2023-07-13T14:03:14;5.00;;;1.75;;
56037;SDS011;41907;47.848;9.000;2023-07-13T14:05:42;1.50;;;1.40;;
56037;SDS011;41907;47.848;9.000;2023-07-13T14:08:12;3.55;;;1.73;;
56037;SDS011;41907;47.848;9.000;2023-07-13T14:10:43;1.88;;;1.20;;
56037;SDS011;41907;47.848;9.000;2023-07-13T14:13:17;2.03;;;1.55;;
56037;SDS011;41907;47.848;9.000;2023-07-13T14:15:46;2.65;;;1.60;;
56037;SDS011;41907;47.848;9.000;2023-07-13T14:18:12;3.25;;;1.52;;
56037;SDS011;41907;47.848;9.000;2023-07-13T14:20:43;1.92;;;1.73;;
56037;SDS011;41907;47.848;9.000;2023-07-13T14:23:09;4.47;;;1.83;;
56037;SDS011;41907;47.848;9.000;2023-07-13T14:25:35;2.92;;;1.50;;
56037;SDS011;41907;47.848;9.000;2023-07-13T14:28:04;2.75;;;1.60;;
56037;SDS011;41907;47.848;9.000;2023-07-13T14:30:42;2.22;;;1.45;;
56037;SDS011;41907;47.848;9.000;2023-07-13T14:33:08;2.57;;;1.80;;
56037;SDS011;41907;47.848;9.000;2023-07-13T14:35:36;2.22;;;1.60;;
56037;SDS011;41907;47.848;9.000;2023-07-13T14:38:02;2.45;;;1.92;;
56037;SDS011;41907;47.848;9.000;2023-07-13T14:40:29;2.20;;;1.70;;
56037;SDS011;41907;47.848;9.000;2023-07-13T14:42:55;3.45;;;1.58;;
56037;SDS011;41907;47.848;9.000;2023-07-13T14:45:21;1.65;;;1.30;;
56037;SDS011;41907;47.848;9.000;2023-07-13T14:47:48;3.92;;;1.60;;
56037;SDS011;41907;47.848;9.000;2023-07-13T14:50:18;2.75;;;1.60;;
56037;SDS011;41907;47.848;9.000;2023-07-13T14:52:51;2.08;;;1.50;;
56037;SDS011;41907;47.848;9.000;2023-07-13T14:55:17;2.10;;;1.35;;
56037;SDS011;41907;47.848;9.000;2023-07-13T14:57:43;2.40;;;1.60;;
56037;SDS011;41907;47.848;9.000;2023-07-13T15:02:40;3.03;;;1.67;;
56037;SDS011;41907;47.848;9.000;2023-07-13T15:05:15;5.03;;;1.73;;
56037;SDS011;41907;47.848;9.000;2023-07-13T15:07:42;2.13;;;1.40;;
56037;SDS011;41907;47.848;9.000;2023-07-13T15:10:41;2.65;;;1.50;;
56037;SDS011;41907;47.848;9.000;2023-07-13T15:13:01;3.75;;;1.70;;
56037;SDS011;41907;47.848;9.000;2023-07-13T15:15:42;2.60;;;1.50;;
56037;SDS011;41907;47.848;9.000;2023-07-13T15:18:11;1.92;;;1.73;;
56037;SDS011;41907;47.848;9.000;2023-07-13T15:20:37;2.28;;;1.80;;
56037;SDS011;41907;47.848;9.000;2023-07-13T15:23:04;2.42;;;1.48;;
56037;SDS011;41907;47.848;9.000;2023-07-13T15:25:30;1.92;;;1.50;;
56037;SDS011;41907;47.848;9.000;2023-07-13T15:27:58;3.58;;;1.73;;
56037;SDS011;41907;47.848;9.000;2023-07-13T15:30:25;3.45;;;1.55;;
56037;SDS011;41907;47.848;9.000;2023-07-13T15:32:54;1.50;;;1.40;;
56037;SDS011;41907;47.848;9.000;2023-07-13T15:35:26;3.03;;;1.73;;
56037;SDS011;41907;47.848;9.000;2023-07-13T15:37:53;1.88;;;1.27;;
56037;SDS011;41907;47.848;9.000;2023-07-13T15:40:19;1.38;;;1.20;;